sensor_id;sensor_type;location;lat;lon;timestamp;P1;durP1;ratioP1;P2;durP2;ratioP2
75112;SDS011;63692;47.338;8.520;2022-12-05T05:19:00;19.52;;;9.40;;
75112;SDS011;63692;47.338;8.520;2022-12-05T05:21:36;20.42;;;10.23;;
75112;SDS011;63692;47.338;8.520;2022-12-05T05:24:03;23.15;;;10.30;;
75112;SDS011;63692;47.338;8.520;2022-12-05T05:26:30;18.77;;;9.45;;
75112;SDS011;63692;47.338;8.520;2022-12-05T05:29:03;17.65;;;9.30;;
75112;SDS011;63692;47.338;8.520;2022-12-05T05:36:29;14.77;;;7.90;;
75112;SDS011;63692;47.338;8.520;2022-12-05T05:44:00;14.95;;;7.55;;
75112;SDS011;63692;47.338;8.520;2022-12-05T05:46:27;13.95;;;7.47;;
75112;SDS011;63692;47.338;8.520;2022-12-05T05:48:55;13.98;;;6.50;;
75112;SDS011;63692;47.338;8.520;2022-12-05T05:53:51;11.82;;;6.55;;
75112;SDS011;63692;47.338;8.520;2022-12-05T05:59:10;15.40;;;6.55;;
75112;SDS011;63692;47.338;8.520;2022-12-05T06:01:39;14.65;;;7.00;;
75112;SDS011;63692;47.338;8.520;2022-12-05T06:04:04;13.80;;;6.85;;
75112;SDS011;63692;47.338;8.520;2022-12-05T06:06:31;12.50;;;7.03;;
75112;SDS011;63692;47.338;8.520;2022-12-05T06:08:57;12.57;;;6.50;;
75112;SDS011;63692;47.338;8.520;2022-12-05T06:11:23;15.55;;;7.53;;
75112;SDS011;63692;47.338;8.520;2022-12-05T06:13:50;12.88;;;7.20;;
75112;SDS011;63692;47.338;8.520;2022-12-05T06:16:17;13.07;;;6.78;;
75112;SDS011;63692;47.338;8.520;2022-12-05T06:18:45;11.60;;;6.25;;
75112;SDS011;63692;47.338;8.520;2022-12-05T06:21:10;12.07;;;6.88;;
75112;SDS011;63692;47.338;8.520;2022-12-05T06:23:37;10.52;;;5.82;;
75112;SDS011;63692;47.338;8.520;2022-12-05T06:26:08;10.57;;;5.65;;
75112;SDS011;63692;47.338;8.520;2022-12-05T06:28:36;11.65;;;5.75;;
75112;SDS011;63692;47.338;8.520;2022-12-05T06:31:09;11.35;;;6.13;;
75112;SDS011;63692;47.338;8.520;2022-12-05T06:33:39;18.83;;;6.80;;
75112;SDS011;63692;47.338;8.520;2022-12-05T06:36:06;11.93;;;6.25;;
75112;SDS011;63692;47.338;8.520;2022-12-05T06:38:33;11.88;;;6.65;;
75112;SDS011;63692;47.338;8.520;2022-12-05T06:40:59;13.52;;;6.65;;
75112;SDS011;63692;47.338;8.520;2022-12-05T06:43:28;12.27;;;6.65;;
75112;SDS011;63692;47.338;8.520;2022-12-05T06:45:53;13.32;;;6.60;;
75112;SDS011;63692;47.338;8.520;2022-12-05T06:48:19;12.25;;;6.13;;
75112;SDS011;63692;47.338;8.520;2022-12-05T06:50:51;10.82;;;5.65;;
75112;SDS011;63692;47.338;8.520;2022-12-05T06:55:56;9.77;;;5.40;;
75112;SDS011;63692;47.338;8.520;2022-12-05T06:58:22;9.10;;;5.20;;
75112;SDS011;63692;47.338;8.520;2022-12-05T07:00:48;9.52;;;5.03;;
75112;SDS011;63692;47.338;8.520;2022-12-05T07:03:32;8.63;;;4.90;;
75112;SDS011;63692;47.338;8.520;2022-12-05T07:06:01;10.75;;;5.35;;
75112;SDS011;63692;47.338;8.520;2022-12-05T07:08:28;6.72;;;4.38;;
75112;SDS011;63692;47.338;8.520;2022-12-05T07:10:54;7.25;;;4.28;;
75112;SDS011;63692;47.338;8.520;2022-12-05T07:13:20;12.35;;;5.25;;
75112;SDS011;63692;47.338;8.520;2022-12-05T07:15:46;10.32;;;5.18;;
75112;SDS011;63692;47.338;8.520;2022-12-05T07:18:12;10.63;;;4.75;;
75112;SDS011;63692;47.338;8.520;2022-12-05T07:20:39;8.10;;;4.50;;
75112;SDS011;63692;47.338;8.520;2022-12-05T07:23:04;8.93;;;4.93;;
75112;SDS011;63692;47.338;8.520;2022-12-05T07:25:30;7.45;;;4.10;;
75112;SDS011;63692;47.338;8.520;2022-12-05T07:27:56;8.73;;;4.50;;
75112;SDS011;63692;47.338;8.520;2022-12-05T07:30:21;6.70;;;3.70;;
75112;SDS011;63692;47.338;8.520;2022-12-05T07:32:47;9.23;;;4.18;;
75112;SDS011;63692;47.338;8.520;2022-12-05T07:35:12;8.15;;;4.75;;
75112;SDS011;63692;47.338;8.520;2022-12-05T07:37:38;7.97;;;4.28;;
75112;SDS011;63692;47.338;8.520;2022-12-05T07:40:04;7.32;;;4.13;;
75112;SDS011;63692;47.338;8.520;2022-12-05T07:42:30;8.68;;;4.07;;
75112;SDS011;63692;47.338;8.520;2022-12-05T07:44:55;7.97;;;4.55;;
75112;SDS011;63692;47.338;8.520;2022-12-05T07:47:21;8.52;;;4.10;;
75112;SDS011;63692;47.338;8.520;2022-12-05T07:49:47;7.15;;;3.90;;
75112;SDS011;63692;47.338;8.520;2022-12-05T07:52:12;7.25;;;3.83;;
75112;SDS011;63692;47.338;8.520;2022-12-05T07:54:38;8.15;;;4.40;;
75112;SDS011;63692;47.338;8.520;2022-12-05T07:57:03;5.60;;;3.78;;
75112;SDS011;63692;47.338;8.520;2022-12-05T07:59:29;6.70;;;3.80;;
75112;SDS011;63692;47.338;8.520;2022-12-05T08:01:54;5.88;;;3.70;;
75112;SDS011;63692;47.338;8.520;2022-12-05T08:04:20;6.97;;;3.75;;
75112;SDS011;63692;47.338;8.520;2022-12-05T08:06:45;7.82;;;4.40;;
75112;SDS011;63692;47.338;8.520;2022-12-05T08:09:11;8.35;;;4.53;;
75112;SDS011;63692;47.338;8.520;2022-12-05T08:11:37;7.38;;;3.72;;
75112;SDS011;63692;47.338;8.520;2022-12-05T08:14:03;7.97;;;4.03;;
75112;SDS011;63692;47.338;8.520;2022-12-05T08:16:30;6.47;;;3.42;;
75112;SDS011;63692;47.338;8.520;2022-12-05T08:18:57;7.65;;;3.90;;
75112;SDS011;63692;47.338;8.520;2022-12-05T08:21:27;7.63;;;4.50;;
75112;SDS011;63692;47.338;8.520;2022-12-05T08:23:53;10.13;;;4.38;;
75112;SDS011;63692;47.338;8.520;2022-12-05T08:26:27;7.60;;;3.70;;
75112;SDS011;63692;47.338;8.520;2022-12-05T08:28:58;6.50;;;3.28;;
75112;SDS011;63692;47.338;8.520;2022-12-05T08:31:31;6.60;;;3.53;;
75112;SDS011;63692;47.338;8.520;2022-12-05T08:33:58;7.53;;;3.40;;
75112;SDS011;63692;47.338;8.520;2022-12-05T08:36:25;8.10;;;3.97;;
75112;SDS011;63692;47.338;8.520;2022-12-05T08:38:55;6.75;;;3.50;;
75112;SDS011;63692;47.338;8.520;2022-12-05T08:41:24;6.82;;;3.65;;
75112;SDS011;63692;47.338;8.520;2022-12-05T08:43:53;7.35;;;3.13;;
75112;SDS011;63692;47.338;8.520;2022-12-05T08:46:19;6.55;;;3.53;;
75112;SDS011;63692;47.338;8.520;2022-12-05T08:48:45;6.30;;;3.83;;
75112;SDS011;63692;47.338;8.520;2022-12-05T08:51:11;8.32;;;3.28;;
75112;SDS011;63692;47.338;8.520;2022-12-05T08:53:37;5.20;;;3.33;;
75112;SDS011;63692;47.338;8.520;2022-12-05T08:56:04;7.47;;;3.85;;
75112;SDS011;63692;47.338;8.520;2022-12-05T08:58:31;6.57;;;2.85;;
75112;SDS011;63692;47.338;8.520;2022-12-05T09:03:29;6.68;;;3.17;;
75112;SDS011;63692;47.338;8.520;2022-12-05T09:06:03;5.07;;;2.95;;
75112;SDS011;63692;47.338;8.520;2022-12-05T09:08:52;6.72;;;3.08;;
75112;SDS011;63692;47.338;8.520;2022-12-05T09:11:21;5.85;;;3.05;;
75112;SDS011;63692;47.338;8.520;2022-12-05T09:13:49;7.07;;;3.30;;
75112;SDS011;63692;47.338;8.520;2022-12-05T09:16:17;5.10;;;2.95;;
75112;SDS011;63692;47.338;8.520;2022-12-05T09:18:44;5.00;;;2.47;;
75112;SDS011;63692;47.338;8.520;2022-12-05T09:21:11;5.70;;;2.80;;
75112;SDS011;63692;47.338;8.520;2022-12-05T09:23:38;5.68;;;3.33;;
75112;SDS011;63692;47.338;8.520;2022-12-05T09:26:05;4.95;;;3.03;;
75112;SDS011;63692;47.338;8.520;2022-12-05T09:28:33;4.97;;;2.67;;
75112;SDS011;63692;47.338;8.520;2022-12-05T09:31:00;5.13;;;3.03;;
75112;SDS011;63692;47.338;8.520;2022-12-05T09:33:30;5.93;;;3.10;;
75112;SDS011;63692;47.338;8.520;2022-12-05T09:35:57;6.40;;;3.30;;
75112;SDS011;63692;47.338;8.520;2022-12-05T09:38:22;4.40;;;2.92;;
75112;SDS011;63692;47.338;8.520;2022-12-05T09:41:39;5.70;;;3.20;;
75112;SDS011;63692;47.338;8.520;2022-12-05T09:43:46;10.45;;;3.58;;
75112;SDS011;63692;47.338;8.520;2022-12-05T09:46:32;5.97;;;2.95;;
75112;SDS011;63692;47.338;8.520;2022-12-05T09:49:10;5.13;;;2.75;;
75112;SDS011;63692;47.338;8.520;2022-12-05T09:51:39;5.63;;;2.97;;
75112;SDS011;63692;47.338;8.520;2022-12-05T09:54:09;5.40;;;3.08;;
75112;SDS011;63692;47.338;8.520;2022-12-05T09:56:36;4.53;;;2.50;;
75112;SDS011;63692;47.338;8.520;2022-12-05T09:59:03;6.88;;;3.30;;
75112;SDS011;63692;47.338;8.520;2022-12-05T10:15:52;5.25;;;2.83;;
75112;SDS011;63692;47.338;8.520;2022-12-05T10:18:26;4.45;;;2.70;;
75112;SDS011;63692;47.338;8.520;2022-12-05T10:21:03;4.43;;;2.70;;
75112;SDS011;63692;47.338;8.520;2022-12-05T10:23:37;6.28;;;2.80;;
75112;SDS011;63692;47.338;8.520;2022-12-05T10:26:13;6.90;;;2.70;;
75112;SDS011;63692;47.338;8.520;2022-12-05T10:28:45;3.70;;;2.47;;
75112;SDS011;63692;47.338;8.520;2022-12-05T10:31:21;5.53;;;2.85;;
75112;SDS011;63692;47.338;8.520;2022-12-05T10:33:52;5.40;;;3.00;;
75112;SDS011;63692;47.338;8.520;2022-12-05T10:36:24;4.53;;;2.70;;
75112;SDS011;63692;47.338;8.520;2022-12-05T10:38:50;6.22;;;2.90;;
75112;SDS011;63692;47.338;8.520;2022-12-05T10:41:16;4.95;;;2.90;;
75112;SDS011;63692;47.338;8.520;2022-12-05T10:43:43;3.70;;;2.47;;
75112;SDS011;63692;47.338;8.520;2022-12-05T10:46:09;4.82;;;2.80;;
75112;SDS011;63692;47.338;8.520;2022-12-05T10:48:40;4.32;;;2.67;;
75112;SDS011;63692;47.338;8.520;2022-12-05T10:51:08;4.82;;;2.60;;
75112;SDS011;63692;47.338;8.520;2022-12-05T10:53:39;4.57;;;2.90;;
75112;SDS011;63692;47.338;8.520;2022-12-05T10:59:06;5.15;;;3.10;;
75112;SDS011;63692;47.338;8.520;2022-12-05T11:01:33;5.18;;;3.05;;
75112;SDS011;63692;47.338;8.520;2022-12-05T11:04:02;4.90;;;2.92;;
75112;SDS011;63692;47.338;8.520;2022-12-05T11:07:45;6.30;;;3.50;;
75112;SDS011;63692;47.338;8.520;2022-12-05T11:09:55;5.95;;;3.45;;
75112;SDS011;63692;47.338;8.520;2022-12-05T11:12:23;6.43;;;3.13;;
75112;SDS011;63692;47.338;8.520;2022-12-05T11:14:53;5.93;;;3.63;;
75112;SDS011;63692;47.338;8.520;2022-12-05T11:17:37;5.78;;;3.67;;
75112;SDS011;63692;47.338;8.520;2022-12-05T11:20:37;9.80;;;5.95;;
75112;SDS011;63692;47.338;8.520;2022-12-05T11:23:04;9.50;;;5.32;;
75112;SDS011;63692;47.338;8.520;2022-12-05T11:25:53;9.02;;;4.68;;
75112;SDS011;63692;47.338;8.520;2022-12-05T11:31:00;5.97;;;3.42;;
75112;SDS011;63692;47.338;8.520;2022-12-05T11:33:33;5.55;;;3.25;;
75112;SDS011;63692;47.338;8.520;2022-12-05T11:36:02;5.15;;;2.95;;
75112;SDS011;63692;47.338;8.520;2022-12-05T11:38:34;5.68;;;3.50;;
75112;SDS011;63692;47.338;8.520;2022-12-05T11:41:08;6.63;;;3.22;;
75112;SDS011;63692;47.338;8.520;2022-12-05T11:52:05;4.40;;;2.55;;
75112;SDS011;63692;47.338;8.520;2022-12-05T11:54:36;4.90;;;2.70;;
75112;SDS011;63692;47.338;8.520;2022-12-05T11:59:58;5.00;;;2.80;;
75112;SDS011;63692;47.338;8.520;2022-12-05T12:08:09;5.53;;;2.97;;
75112;SDS011;63692;47.338;8.520;2022-12-05T12:24:41;4.78;;;2.22;;
75112;SDS011;63692;47.338;8.520;2022-12-05T12:27:14;4.50;;;2.17;;
75112;SDS011;63692;47.338;8.520;2022-12-05T12:30:00;4.38;;;2.17;;
75112;SDS011;63692;47.338;8.520;2022-12-05T12:35:16;4.57;;;2.70;;
75112;SDS011;63692;47.338;8.520;2022-12-05T12:40:39;5.55;;;2.90;;
75112;SDS011;63692;47.338;8.520;2022-12-05T12:43:18;4.72;;;2.92;;
75112;SDS011;63692;47.338;8.520;2022-12-05T12:51:32;5.57;;;3.40;;
75112;SDS011;63692;47.338;8.520;2022-12-05T12:54:18;5.95;;;3.63;;
75112;SDS011;63692;47.338;8.520;2022-12-05T13:02:09;7.28;;;3.30;;
75112;SDS011;63692;47.338;8.520;2022-12-05T13:05:02;5.45;;;3.22;;
75112;SDS011;63692;47.338;8.520;2022-12-05T13:07:50;5.00;;;3.42;;
75112;SDS011;63692;47.338;8.520;2022-12-05T13:10:37;7.35;;;3.70;;
75112;SDS011;63692;47.338;8.520;2022-12-05T13:13:06;6.72;;;4.00;;
75112;SDS011;63692;47.338;8.520;2022-12-05T13:15:39;6.70;;;4.10;;
75112;SDS011;63692;47.338;8.520;2022-12-05T13:18:17;5.57;;;3.70;;
75112;SDS011;63692;47.338;8.520;2022-12-05T13:20:46;5.95;;;3.80;;
75112;SDS011;63692;47.338;8.520;2022-12-05T13:23:15;6.13;;;3.80;;
75112;SDS011;63692;47.338;8.520;2022-12-05T13:25:43;5.90;;;3.83;;
75112;SDS011;63692;47.338;8.520;2022-12-05T13:28:22;6.13;;;3.60;;
75112;SDS011;63692;47.338;8.520;2022-12-05T13:30:58;8.68;;;3.95;;
75112;SDS011;63692;47.338;8.520;2022-12-05T13:33:48;6.38;;;4.25;;
75112;SDS011;63692;47.338;8.520;2022-12-05T13:36:20;6.55;;;3.72;;
75112;SDS011;63692;47.338;8.520;2022-12-05T13:39:19;8.13;;;4.70;;
75112;SDS011;63692;47.338;8.520;2022-12-05T13:42:04;7.90;;;4.30;;
75112;SDS011;63692;47.338;8.520;2022-12-05T13:50:06;7.87;;;4.73;;
75112;SDS011;63692;47.338;8.520;2022-12-05T13:52:59;5.80;;;3.88;;
75112;SDS011;63692;47.338;8.520;2022-12-05T13:55:53;6.30;;;4.00;;
75112;SDS011;63692;47.338;8.520;2022-12-05T14:06:57;8.40;;;4.70;;
75112;SDS011;63692;47.338;8.520;2022-12-05T14:12:07;7.85;;;4.18;;
75112;SDS011;63692;47.338;8.520;2022-12-05T14:17:19;8.55;;;3.72;;
75112;SDS011;63692;47.338;8.520;2022-12-05T14:20:15;7.72;;;4.40;;
75112;SDS011;63692;47.338;8.520;2022-12-05T14:22:46;8.70;;;4.72;;
75112;SDS011;63692;47.338;8.520;2022-12-05T14:34:02;14.43;;;5.22;;
75112;SDS011;63692;47.338;8.520;2022-12-05T14:41:59;10.65;;;4.43;;
75112;SDS011;63692;47.338;8.520;2022-12-05T14:44:26;9.95;;;4.82;;
75112;SDS011;63692;47.338;8.520;2022-12-05T14:47:00;6.05;;;3.75;;
75112;SDS011;63692;47.338;8.520;2022-12-05T14:49:33;5.65;;;3.63;;
75112;SDS011;63692;47.338;8.520;2022-12-05T14:52:19;6.68;;;3.38;;
75112;SDS011;63692;47.338;8.520;2022-12-05T14:54:46;5.20;;;3.15;;
75112;SDS011;63692;47.338;8.520;2022-12-05T14:57:14;5.40;;;3.25;;
75112;SDS011;63692;47.338;8.520;2022-12-05T14:59:44;5.93;;;3.80;;
75112;SDS011;63692;47.338;8.520;2022-12-05T15:02:19;6.82;;;3.78;;
75112;SDS011;63692;47.338;8.520;2022-12-05T15:07:28;7.43;;;3.80;;
75112;SDS011;63692;47.338;8.520;2022-12-05T15:09:59;9.07;;;3.33;;
75112;SDS011;63692;47.338;8.520;2022-12-05T15:15:12;7.28;;;3.40;;
75112;SDS011;63692;47.338;8.520;2022-12-05T15:28:24;6.32;;;2.90;;
75112;SDS011;63692;47.338;8.520;2022-12-05T15:30:54;4.75;;;2.60;;
75112;SDS011;63692;47.338;8.520;2022-12-05T15:33:21;5.88;;;2.72;;
75112;SDS011;63692;47.338;8.520;2022-12-05T15:35:48;5.95;;;2.90;;
75112;SDS011;63692;47.338;8.520;2022-12-05T15:38:27;4.63;;;2.97;;
75112;SDS011;63692;47.338;8.520;2022-12-05T15:40:56;4.57;;;2.63;;
75112;SDS011;63692;47.338;8.520;2022-12-05T15:43:25;5.22;;;3.00;;
75112;SDS011;63692;47.338;8.520;2022-12-05T15:46:13;5.30;;;2.97;;
75112;SDS011;63692;47.338;8.520;2022-12-05T15:48:44;5.13;;;2.83;;
75112;SDS011;63692;47.338;8.520;2022-12-05T15:51:10;5.25;;;3.00;;
75112;SDS011;63692;47.338;8.520;2022-12-05T15:53:40;6.75;;;3.25;;
75112;SDS011;63692;47.338;8.520;2022-12-05T15:56:18;5.30;;;2.80;;
75112;SDS011;63692;47.338;8.520;2022-12-05T15:59:33;4.68;;;2.58;;
75112;SDS011;63692;47.338;8.520;2022-12-05T16:02:51;5.35;;;2.90;;
75112;SDS011;63692;47.338;8.520;2022-12-05T16:05:24;5.63;;;3.20;;
75112;SDS011;63692;47.338;8.520;2022-12-05T16:08:00;6.93;;;4.22;;
75112;SDS011;63692;47.338;8.520;2022-12-05T16:10:28;18.58;;;9.70;;
75112;SDS011;63692;47.338;8.520;2022-12-05T16:12:54;18.48;;;10.70;;
75112;SDS011;63692;47.338;8.520;2022-12-05T16:15:26;15.05;;;9.07;;
75112;SDS011;63692;47.338;8.520;2022-12-05T16:17:53;11.85;;;6.85;;
75112;SDS011;63692;47.338;8.520;2022-12-05T16:20:31;10.38;;;6.20;;
75112;SDS011;63692;47.338;8.520;2022-12-05T16:23:02;14.52;;;8.48;;
75112;SDS011;63692;47.338;8.520;2022-12-05T16:25:34;14.18;;;8.32;;
75112;SDS011;63692;47.338;8.520;2022-12-05T16:30:32;82.38;;;30.23;;
75112;SDS011;63692;47.338;8.520;2022-12-05T16:33:00;45.47;;;19.50;;
75112;SDS011;63692;47.338;8.520;2022-12-05T16:35:33;32.97;;;14.52;;
75112;SDS011;63692;47.338;8.520;2022-12-05T16:40:54;13.55;;;7.38;;
75112;SDS011;63692;47.338;8.520;2022-12-05T16:45:50;16.35;;;8.20;;
75112;SDS011;63692;47.338;8.520;2022-12-05T16:48:19;11.57;;;6.85;;
75112;SDS011;63692;47.338;8.520;2022-12-05T16:50:47;9.13;;;5.68;;
75112;SDS011;63692;47.338;8.520;2022-12-05T16:53:19;11.52;;;6.65;;
75112;SDS011;63692;47.338;8.520;2022-12-05T16:55:46;11.80;;;6.32;;
75112;SDS011;63692;47.338;8.520;2022-12-05T16:58:16;11.00;;;6.47;;
75112;SDS011;63692;47.338;8.520;2022-12-05T17:00:46;9.77;;;5.95;;
75112;SDS011;63692;47.338;8.520;2022-12-05T17:03:12;10.18;;;5.03;;
75112;SDS011;63692;47.338;8.520;2022-12-05T17:05:38;9.43;;;4.95;;
75112;SDS011;63692;47.338;8.520;2022-12-05T17:08:04;10.48;;;5.15;;
75112;SDS011;63692;47.338;8.520;2022-12-05T17:10:29;6.88;;;4.22;;
75112;SDS011;63692;47.338;8.520;2022-12-05T17:12:56;8.18;;;4.60;;
75112;SDS011;63692;47.338;8.520;2022-12-05T17:15:24;10.70;;;5.70;;
75112;SDS011;63692;47.338;8.520;2022-12-05T17:17:49;10.88;;;4.93;;
75112;SDS011;63692;47.338;8.520;2022-12-05T17:20:15;10.13;;;4.80;;
75112;SDS011;63692;47.338;8.520;2022-12-05T17:22:41;9.40;;;4.60;;
75112;SDS011;63692;47.338;8.520;2022-12-05T17:25:49;10.07;;;5.13;;
75112;SDS011;63692;47.338;8.520;2022-12-05T17:28:00;8.20;;;5.07;;
75112;SDS011;63692;47.338;8.520;2022-12-05T17:30:25;8.40;;;5.47;;
75112;SDS011;63692;47.338;8.520;2022-12-05T17:32:51;13.60;;;7.35;;
75112;SDS011;63692;47.338;8.520;2022-12-05T17:35:18;11.35;;;6.95;;
75112;SDS011;63692;47.338;8.520;2022-12-05T17:37:46;11.25;;;6.68;;
75112;SDS011;63692;47.338;8.520;2022-12-05T17:40:12;8.85;;;5.40;;
75112;SDS011;63692;47.338;8.520;2022-12-05T17:42:38;10.57;;;4.43;;
75112;SDS011;63692;47.338;8.520;2022-12-05T17:45:05;6.68;;;4.18;;
75112;SDS011;63692;47.338;8.520;2022-12-05T17:47:39;7.63;;;4.20;;
75112;SDS011;63692;47.338;8.520;2022-12-05T17:50:06;10.20;;;4.50;;
75112;SDS011;63692;47.338;8.520;2022-12-05T17:52:35;7.75;;;4.10;;
75112;SDS011;63692;47.338;8.520;2022-12-05T17:55:01;7.90;;;4.70;;
75112;SDS011;63692;47.338;8.520;2022-12-05T17:57:26;8.50;;;4.35;;
75112;SDS011;63692;47.338;8.520;2022-12-05T17:59:52;7.45;;;4.50;;
75112;SDS011;63692;47.338;8.520;2022-12-05T18:02:18;8.98;;;5.05;;
75112;SDS011;63692;47.338;8.520;2022-12-05T18:04:44;7.40;;;4.60;;
75112;SDS011;63692;47.338;8.520;2022-12-05T18:07:10;7.00;;;4.65;;
75112;SDS011;63692;47.338;8.520;2022-12-05T18:09:35;8.57;;;4.18;;
75112;SDS011;63692;47.338;8.520;2022-12-05T18:12:01;7.93;;;4.03;;
75112;SDS011;63692;47.338;8.520;2022-12-05T18:14:27;8.32;;;4.85;;
75112;SDS011;63692;47.338;8.520;2022-12-05T18:16:53;6.72;;;4.25;;
75112;SDS011;63692;47.338;8.520;2022-12-05T18:19:18;6.38;;;4.32;;
75112;SDS011;63692;47.338;8.520;2022-12-05T18:21:44;8.38;;;4.35;;
75112;SDS011;63692;47.338;8.520;2022-12-05T18:24:10;7.70;;;4.43;;
75112;SDS011;63692;47.338;8.520;2022-12-05T18:26:36;10.30;;;5.18;;
75112;SDS011;63692;47.338;8.520;2022-12-05T18:29:01;8.60;;;5.13;;
75112;SDS011;63692;47.338;8.520;2022-12-05T18:31:27;11.30;;;5.28;;
75112;SDS011;63692;47.338;8.520;2022-12-05T18:33:54;8.55;;;4.93;;
75112;SDS011;63692;47.338;8.520;2022-12-05T18:36:20;10.13;;;5.30;;
75112;SDS011;63692;47.338;8.520;2022-12-05T18:38:50;14.90;;;9.50;;
75112;SDS011;63692;47.338;8.520;2022-12-05T18:43:47;16.17;;;9.40;;
75112;SDS011;63692;47.338;8.520;2022-12-05T18:46:13;15.95;;;9.43;;
75112;SDS011;63692;47.338;8.520;2022-12-05T18:48:39;11.50;;;7.18;;
75112;SDS011;63692;47.338;8.520;2022-12-05T18:51:09;11.85;;;6.53;;
75112;SDS011;63692;47.338;8.520;2022-12-05T18:53:36;11.00;;;6.40;;
75112;SDS011;63692;47.338;8.520;2022-12-05T18:56:06;10.45;;;6.28;;
75112;SDS011;63692;47.338;8.520;2022-12-05T18:58:33;9.57;;;6.03;;
75112;SDS011;63692;47.338;8.520;2022-12-05T19:01:17;10.05;;;6.40;;
75112;SDS011;63692;47.338;8.520;2022-12-05T19:03:44;9.45;;;5.55;;
75112;SDS011;63692;47.338;8.520;2022-12-05T19:06:11;9.07;;;5.50;;
75112;SDS011;63692;47.338;8.520;2022-12-05T19:08:42;8.52;;;5.40;;
75112;SDS011;63692;47.338;8.520;2022-12-05T19:11:08;9.10;;;5.63;;
75112;SDS011;63692;47.338;8.520;2022-12-05T19:13:38;14.18;;;8.55;;
75112;SDS011;63692;47.338;8.520;2022-12-05T19:16:05;8.60;;;5.90;;
75112;SDS011;63692;47.338;8.520;2022-12-05T19:18:33;10.05;;;6.00;;
75112;SDS011;63692;47.338;8.520;2022-12-05T19:23:27;8.60;;;5.55;;
75112;SDS011;63692;47.338;8.520;2022-12-05T19:26:02;11.15;;;6.03;;
75112;SDS011;63692;47.338;8.520;2022-12-05T19:28:35;10.05;;;5.53;;
75112;SDS011;63692;47.338;8.520;2022-12-05T19:33:30;7.63;;;5.13;;
75112;SDS011;63692;47.338;8.520;2022-12-05T19:36:00;8.40;;;4.72;;
75112;SDS011;63692;47.338;8.520;2022-12-05T19:38:36;8.00;;;5.50;;
75112;SDS011;63692;47.338;8.520;2022-12-05T19:41:03;8.88;;;5.00;;
75112;SDS011;63692;47.338;8.520;2022-12-05T19:43:30;9.35;;;5.72;;
75112;SDS011;63692;47.338;8.520;2022-12-05T19:45:57;13.50;;;6.90;;
75112;SDS011;63692;47.338;8.520;2022-12-05T19:48:34;10.77;;;6.38;;
75112;SDS011;63692;47.338;8.520;2022-12-05T19:51:00;11.98;;;6.43;;
75112;SDS011;63692;47.338;8.520;2022-12-05T19:53:27;11.38;;;6.75;;
75112;SDS011;63692;47.338;8.520;2022-12-05T19:56:04;10.25;;;6.50;;
75112;SDS011;63692;47.338;8.520;2022-12-05T19:58:35;10.75;;;6.53;;
75112;SDS011;63692;47.338;8.520;2022-12-05T20:01:05;15.43;;;5.43;;
75112;SDS011;63692;47.338;8.520;2022-12-05T20:03:39;11.18;;;6.35;;
75112;SDS011;63692;47.338;8.520;2022-12-05T20:06:07;11.90;;;5.63;;
75112;SDS011;63692;47.338;8.520;2022-12-05T20:08:33;9.82;;;6.07;;
75112;SDS011;63692;47.338;8.520;2022-12-05T20:11:07;10.02;;;6.45;;
75112;SDS011;63692;47.338;8.520;2022-12-05T20:13:41;10.25;;;6.78;;
75112;SDS011;63692;47.338;8.520;2022-12-05T20:16:08;10.65;;;6.80;;
75112;SDS011;63692;47.338;8.520;2022-12-05T20:18:35;12.73;;;6.60;;
75112;SDS011;63692;47.338;8.520;2022-12-05T20:21:02;12.18;;;6.93;;
75112;SDS011;63692;47.338;8.520;2022-12-05T20:23:29;10.82;;;6.85;;
75112;SDS011;63692;47.338;8.520;2022-12-05T20:25:59;12.65;;;7.47;;
75112;SDS011;63692;47.338;8.520;2022-12-05T20:28:27;10.25;;;6.88;;
75112;SDS011;63692;47.338;8.520;2022-12-05T20:31:01;11.68;;;7.10;;
75112;SDS011;63692;47.338;8.520;2022-12-05T20:33:27;12.45;;;6.90;;
75112;SDS011;63692;47.338;8.520;2022-12-05T20:35:53;13.45;;;7.13;;
75112;SDS011;63692;47.338;8.520;2022-12-05T20:38:18;11.95;;;8.15;;
75112;SDS011;63692;47.338;8.520;2022-12-05T20:40:44;11.60;;;6.95;;
75112;SDS011;63692;47.338;8.520;2022-12-05T20:43:09;10.02;;;7.20;;
75112;SDS011;63692;47.338;8.520;2022-12-05T20:45:35;11.63;;;7.40;;
75112;SDS011;63692;47.338;8.520;2022-12-05T20:48:00;11.32;;;7.68;;
75112;SDS011;63692;47.338;8.520;2022-12-05T20:50:26;11.57;;;7.43;;
75112;SDS011;63692;47.338;8.520;2022-12-05T20:52:51;13.15;;;7.30;;
